Time;durP1;ratioP1;P1;durP2;ratioP2;P2;SDS_P1;SDS_P2;PMS_P1;PMS_P2;Temp;Humidity;BMP_temperature;BMP_pressure;BME280_temperature;BME280_humidity;BME280_pressure;Samples;Min_cycle;Max_cycle;Signal;HPM_P1;HPM_P2
2022/03/27 00:01:15;;;;;;;5.40;3.70;;;;;;;10.17;100.00;103309.72;4988117;28;20089;-84
2022/03/27 00:03:41;;;;;;;5.45;3.65;;;;;;;10.13;100.00;103304.44;4978283;28;20034;-83
2022/03/27 00:06:06;;;;;;;5.43;3.65;;;;;;;10.12;100.00;103311.50;4976767;28;20058;-84
2022/03/27 00:08:32;;;;;;;4.50;2.95;;;;;;;10.11;100.00;103304.44;5010769;28;20066;-83
2022/03/27 00:13:42;;;;;;;5.57;3.70;;;;;;;10.10;100.00;103307.09;5001136;28;20096;-84
2022/03/27 00:16:09;;;;;;;6.55;4.05;;;;;;;10.04;100.00;103302.72;5007444;28;20062;-84
2022/03/27 00:18:36;;;;;;;6.03;3.78;;;;;;;9.99;100.00;103296.56;4979775;28;20128;-84
2022/03/27 00:21:02;;;;;;;7.38;4.68;;;;;;;10.00;100.00;103304.47;4994289;28;20133;-83
2022/03/27 00:23:28;;;;;;;7.43;4.30;;;;;;;10.00;100.00;103295.69;4968340;28;20038;-83
2022/03/27 00:25:54;;;;;;;6.25;4.40;;;;;;;10.00;100.00;103299.19;4976538;28;20037;-84
2022/03/27 00:28:20;;;;;;;6.25;4.28;;;;;;;9.90;100.00;103294.81;4941987;28;20034;-83
2022/03/27 00:30:46;;;;;;;5.90;4.05;;;;;;;9.89;100.00;103300.13;5009133;28;20041;-83
2022/03/27 00:33:12;;;;;;;6.18;4.30;;;;;;;9.81;100.00;103300.13;4976638;28;20026;-83
2022/03/27 00:35:37;;;;;;;7.15;4.40;;;;;;;9.82;100.00;103302.75;4978026;28;20096;-85
2022/03/27 00:38:03;;;;;;;6.60;4.55;;;;;;;9.84;100.00;103303.63;4974886;28;20042;-84
2022/03/27 00:40:28;;;;;;;6.80;3.97;;;;;;;9.85;100.00;103293.94;4968214;28;20097;-84
2022/03/27 00:42:53;;;;;;;7.75;4.88;;;;;;;9.75;100.00;103314.22;4986471;28;20102;-84
2022/03/27 00:45:19;;;;;;;6.63;4.70;;;;;;;9.72;100.00;103305.41;4993266;28;20026;-84
2022/03/27 00:47:44;;;;;;;6.93;4.35;;;;;;;9.72;100.00;103305.41;4988956;28;20042;-83
2022/03/27 00:50:10;;;;;;;5.85;4.53;;;;;;;9.57;100.00;103309.84;4964984;28;20065;-84
2022/03/27 00:52:36;;;;;;;7.25;4.45;;;;;;;9.54;100.00;103309.88;4992503;28;20026;-84
2022/03/27 00:55:02;;;;;;;8.10;5.53;;;;;;;9.50;100.00;103306.34;4993529;28;20473;-83
2022/03/27 00:57:27;;;;;;;8.27;5.28;;;;;;;9.45;100.00;103310.75;4975330;28;20041;-86
2022/03/27 00:59:53;;;;;;;9.65;5.40;;;;;;;9.39;100.00;103308.09;5011001;28;20030;-85
2022/03/27 01:02:25;;;;;;;7.45;5.22;;;;;;;9.33;100.00;103306.34;4986810;28;20034;-84
2022/03/27 01:04:54;;;;;;;7.10;4.88;;;;;;;9.30;100.00;103302.81;4973315;28;20033;-84
2022/03/27 01:07:20;;;;;;;8.05;5.70;;;;;;;9.31;100.00;103302.81;4987218;28;20022;-84
2022/03/27 01:09:46;;;;;;;8.70;5.47;;;;;;;9.30;100.00;103303.69;4984506;28;20026;-84
2022/03/27 01:12:16;;;;;;;8.95;6.15;;;;;;;9.26;100.00;103314.25;4983798;28;20019;-84
2022/03/27 01:14:44;;;;;;;10.30;5.80;;;;;;;9.17;100.00;103305.44;4967036;28;20042;-83
2022/03/27 01:17:10;;;;;;;11.63;6.20;;;;;;;9.16;100.00;103311.59;4994453;28;20022;-85
2022/03/27 01:19:41;;;;;;;8.73;5.80;;;;;;;9.14;100.00;103307.19;4993558;28;20026;-84
2022/03/27 01:22:07;;;;;;;9.37;6.17;;;;;;;9.13;100.00;103301.03;4984938;28;20521;-84
2022/03/27 01:24:33;;;;;;;10.73;6.63;;;;;;;9.12;100.00;103295.75;4971755;28;20058;-84
2022/03/27 01:26:58;;;;;;;10.07;6.60;;;;;;;9.08;100.00;103297.53;4979785;28;20139;-85
2022/03/27 01:29:24;;;;;;;9.45;6.15;;;;;;;9.10;100.00;103295.75;4991807;28;20056;-84
2022/03/27 01:31:51;;;;;;;10.18;5.93;;;;;;;9.14;100.00;103288.69;4971959;28;20114;-85
2022/03/27 01:34:17;;;;;;;8.93;5.47;;;;;;;9.14;100.00;103296.63;4978409;28;20026;-85
2022/03/27 01:36:42;;;;;;;8.45;5.15;;;;;;;8.99;100.00;103289.56;4980135;28;20066;-85
2022/03/27 01:39:10;;;;;;;8.65;5.97;;;;;;;8.93;100.00;103294.88;5001084;28;20089;-85
2022/03/27 01:41:37;;;;;;;9.07;5.80;;;;;;;8.83;100.00;103291.31;4990813;28;20045;-84
2022/03/27 01:44:04;;;;;;;11.43;6.03;;;;;;;8.68;100.00;103289.50;4977490;28;20030;-85
2022/03/27 01:46:31;;;;;;;14.73;5.95;;;;;;;8.59;100.00;103290.34;4974272;28;20489;-85
2022/03/27 01:49:00;;;;;;;9.05;5.93;;;;;;;8.48;100.00;103285.06;4992212;28;20160;-85
2022/03/27 01:51:25;;;;;;;8.63;5.22;;;;;;;8.49;100.00;103289.47;4974489;28;20029;-85
2022/03/27 01:53:50;;;;;;;9.38;5.82;;;;;;;8.40;100.00;103291.16;4993057;28;20030;-85
2022/03/27 01:56:16;;;;;;;8.05;5.32;;;;;;;8.39;100.00;103284.09;4989820;28;20126;-84
2022/03/27 01:58:42;;;;;;;8.30;5.50;;;;;;;8.44;100.00;103298.19;4993825;28;20771;-85
2022/03/27 02:01:08;;;;;;;9.43;5.88;;;;;;;8.44;100.00;103296.47;5005920;28;20124;-84
2022/03/27 02:03:34;;;;;;;10.57;6.45;;;;;;;8.49;100.00;103293.84;4970410;28;20049;-84
2022/03/27 02:06:03;;;;;;;9.93;5.88;;;;;;;8.43;100.00;103288.53;4986550;28;20371;-84
2022/03/27 02:08:29;;;;;;;10.23;6.38;;;;;;;8.35;100.00;103292.03;4981756;28;20509;-84
2022/03/27 02:10:54;;;;;;;10.43;6.20;;;;;;;8.28;100.00;103284.94;4990106;28;20030;-85
2022/03/27 02:13:22;;;;;;;10.55;6.10;;;;;;;8.30;100.00;103285.84;5006206;28;20613;-84
2022/03/27 02:15:48;;;;;;;9.98;6.22;;;;;;;8.33;100.00;103293.75;4954607;28;20514;-85
2022/03/27 02:18:15;;;;;;;9.32;6.28;;;;;;;8.31;100.00;103284.97;4980121;28;20493;-85
2022/03/27 02:20:43;;;;;;;9.48;6.00;;;;;;;8.29;100.00;103286.72;4983532;28;20452;-85
2022/03/27 02:23:09;;;;;;;9.57;5.70;;;;;;;8.29;100.00;103286.72;4971360;28;20504;-85
2022/03/27 02:25:34;;;;;;;10.25;6.45;;;;;;;8.28;100.00;103279.66;4987296;28;20038;-85
2022/03/27 02:28:00;;;;;;;10.25;6.05;;;;;;;8.29;100.00;103284.06;4972047;28;20034;-83
2022/03/27 02:30:26;;;;;;;10.80;6.75;;;;;;;8.28;100.00;103289.34;4967744;28;20030;-85
2022/03/27 02:32:51;;;;;;;11.52;7.13;;;;;;;8.22;100.00;103278.75;4988052;28;20034;-85
2022/03/27 02:35:17;;;;;;;11.35;7.40;;;;;;;8.26;100.00;103280.53;4944816;28;20121;-84
2022/03/27 02:37:42;;;;;;;10.63;6.85;;;;;;;8.22;100.00;103279.63;4980237;28;20043;-84
2022/03/27 02:40:09;;;;;;;12.68;7.88;;;;;;;8.28;100.00;103274.38;4993895;28;20061;-83
2022/03/27 02:42:35;;;;;;;10.60;6.88;;;;;;;8.33;100.00;103266.50;4981841;28;20531;-84
2022/03/27 02:45:00;;;;;;;9.05;5.88;;;;;;;8.28;100.00;103270.88;4953585;28;20039;-84
2022/03/27 02:47:26;;;;;;;9.98;6.15;;;;;;;8.25;100.00;103277.03;4990167;28;20133;-84
2022/03/27 02:49:51;;;;;;;9.18;6.13;;;;;;;8.24;100.00;103269.97;5027607;28;20038;-84
2022/03/27 02:52:16;;;;;;;9.23;5.88;;;;;;;8.18;100.00;103280.50;4997790;28;20038;-84
2022/03/27 02:54:43;;;;;;;8.40;5.72;;;;;;;8.13;100.00;103276.97;4994593;28;20425;-83
2022/03/27 02:57:08;;;;;;;8.35;5.60;;;;;;;8.10;100.00;103274.31;4977031;28;20031;-83
2022/03/27 02:59:34;;;;;;;9.02;5.65;;;;;;;8.12;100.00;103275.19;5009037;28;20544;-84
2022/03/27 03:02:02;;;;;;;8.52;5.65;;;;;;;8.14;100.00;103261.13;4989470;28;20038;-84
2022/03/27 03:04:29;;;;;;;9.13;6.15;;;;;;;8.09;100.00;103268.13;4989863;28;20122;-84
2022/03/27 03:06:56;;;;;;;9.30;6.57;;;;;;;8.12;100.00;103267.28;4964134;28;20054;-84
2022/03/27 03:09:21;;;;;;;9.48;6.43;;;;;;;8.04;100.00;103257.59;4983290;28;20030;-84
2022/03/27 03:11:46;;;;;;;9.63;6.18;;;;;;;8.08;100.00;103260.22;4968926;28;20022;-84
2022/03/27 03:14:12;;;;;;;9.63;6.43;;;;;;;8.09;100.00;103257.59;4973568;28;20497;-85
2022/03/27 03:16:38;;;;;;;9.90;6.57;;;;;;;8.05;100.00;103261.09;5002506;28;20041;-84
2022/03/27 03:19:05;;;;;;;10.30;6.65;;;;;;;8.04;100.00;103252.31;4985201;28;20541;-84
2022/03/27 03:21:30;;;;;;;10.88;6.88;;;;;;;8.02;100.00;103264.59;4996076;28;20043;-84
2022/03/27 03:23:56;;;;;;;10.23;7.05;;;;;;;8.02;100.00;103267.25;4986622;28;20073;-84
2022/03/27 03:26:22;;;;;;;10.00;6.68;;;;;;;8.01;100.00;103264.59;4947420;28;20116;-84
2022/03/27 03:28:48;;;;;;;11.02;7.13;;;;;;;8.04;100.00;103256.69;4976621;28;20038;-84
2022/03/27 03:31:14;;;;;;;12.55;8.05;;;;;;;8.09;100.00;103260.22;5005470;28;20492;-83
2022/03/27 03:33:40;;;;;;;12.60;7.75;;;;;;;8.02;100.00;103255.81;4983697;28;20061;-85
2022/03/27 03:36:05;;;;;;;11.98;7.90;;;;;;;7.98;100.00;103262.81;4991070;28;20109;-84
2022/03/27 03:38:31;;;;;;;11.05;7.43;;;;;;;8.01;100.00;103254.03;4975031;28;20057;-84
2022/03/27 03:40:56;;;;;;;11.32;7.68;;;;;;;7.95;100.00;103254.88;4957346;28;20037;-84
2022/03/27 03:43:22;;;;;;;11.50;7.65;;;;;;;8.02;100.00;103255.81;4984798;28;20077;-84
2022/03/27 03:45:48;;;;;;;12.05;8.00;;;;;;;7.98;100.00;103260.19;4972728;28;20094;-84
2022/03/27 03:48:14;;;;;;;11.23;7.43;;;;;;;7.99;100.00;103253.16;4971996;28;20076;-84
2022/03/27 03:50:39;;;;;;;12.95;8.15;;;;;;;7.98;100.00;103251.38;5002993;28;20443;-84
2022/03/27 03:53:05;;;;;;;12.73;7.97;;;;;;;7.92;100.00;103248.72;4990976;28;21087;-84
2022/03/27 03:55:31;;;;;;;11.13;7.60;;;;;;;7.87;100.00;103248.69;4985946;28;20030;-84
2022/03/27 03:57:57;;;;;;;13.35;7.75;;;;;;;7.98;100.00;103260.19;4972948;28;20032;-84
2022/03/27 04:00:23;;;;;;;12.82;8.55;;;;;;;7.97;100.00;103258.41;4989831;28;20117;-83
2022/03/27 04:02:48;;;;;;;13.20;8.60;;;;;;;7.98;100.00;103249.63;4965813;28;20089;-84
2022/03/27 04:05:14;;;;;;;13.13;8.02;;;;;;;7.90;100.00;103261.88;4987146;28;20034;-84
2022/03/27 04:07:39;;;;;;;14.10;8.95;;;;;;;7.91;100.00;103257.50;4983752;28;20026;-85
2022/03/27 04:10:06;;;;;;;13.65;8.60;;;;;;;7.91;100.00;103254.88;4967583;28;20058;-84
2022/03/27 04:12:31;;;;;;;14.68;9.00;;;;;;;7.75;100.00;103260.06;4964817;28;20027;-84
2022/03/27 04:14:57;;;;;;;15.65;8.77;;;;;;;7.69;100.00;103252.13;4971641;28;20118;-86
2022/03/27 04:17:22;;;;;;;15.52;8.88;;;;;;;7.71;100.00;103245.06;4981827;28;20046;-85
2022/03/27 04:19:48;;;;;;;14.00;8.75;;;;;;;7.76;100.00;103251.25;4952769;28;20597;-84
2022/03/27 04:22:13;;;;;;;13.43;8.55;;;;;;;7.75;100.00;103245.97;4968971;28;20035;-84
2022/03/27 04:24:39;;;;;;;13.13;8.95;;;;;;;7.77;100.00;103252.16;4977303;28;20165;-84
2022/03/27 04:27:04;;;;;;;14.00;8.93;;;;;;;7.80;100.00;103258.34;4987145;28;20042;-85
2022/03/27 04:29:29;;;;;;;15.13;8.85;;;;;;;7.84;100.00;103257.47;4955634;28;20077;-84
2022/03/27 04:31:55;;;;;;;12.55;8.45;;;;;;;7.79;100.00;103259.22;4990348;28;20038;-84
2022/03/27 04:34:20;;;;;;;14.68;8.63;;;;;;;7.83;100.00;103260.97;4969552;28;20027;-85
2022/03/27 04:36:46;;;;;;;13.57;8.65;;;;;;;7.87;100.00;103262.75;4985729;28;20106;-85
2022/03/27 04:39:11;;;;;;;9.50;6.30;;;;;;;7.83;100.00;103268.03;4981707;28;20117;-83
2022/03/27 04:41:37;;;;;;;11.57;7.25;;;;;;;7.71;100.00;103258.25;4971950;28;20038;-84
2022/03/27 04:44:04;;;;;;;11.68;6.88;;;;;;;7.62;100.00;103269.66;4973669;28;20069;-84
2022/03/27 04:46:30;;;;;;;12.45;7.50;;;;;;;7.58;100.00;103272.25;4991213;28;20497;-85
2022/03/27 04:48:55;;;;;;;11.85;7.22;;;;;;;7.60;100.00;103267.88;4990450;28;20064;-85
2022/03/27 04:51:21;;;;;;;11.40;6.97;;;;;;;7.61;100.00;103261.72;4953453;28;20053;-84
2022/03/27 04:53:47;;;;;;;11.32;7.03;;;;;;;7.53;100.00;103267.84;4992202;28;20391;-85
2022/03/27 04:56:12;;;;;;;12.07;7.28;;;;;;;7.59;100.00;103269.63;4994446;28;20038;-85
2022/03/27 04:58:38;;;;;;;12.30;6.88;;;;;;;7.62;100.00;103271.41;5001326;28;20046;-84
2022/03/27 05:01:03;;;;;;;10.80;6.65;;;;;;;7.64;100.00;103272.31;4960809;28;20038;-83
2022/03/27 05:03:29;;;;;;;9.88;6.53;;;;;;;7.65;100.00;103274.06;5006283;28;20034;-84
2022/03/27 05:05:55;;;;;;;10.07;6.55;;;;;;;7.64;100.00;103267.03;4960191;28;20089;-84
2022/03/27 05:08:20;;;;;;;11.77;6.93;;;;;;;7.62;100.00;103269.66;4994309;28;20113;-84
2022/03/27 05:10:46;;;;;;;10.38;6.82;;;;;;;7.66;100.00;103262.63;4975773;28;20046;-83
2022/03/27 05:13:14;;;;;;;10.30;6.57;;;;;;;7.63;100.00;103265.25;4947005;28;20454;-84
2022/03/27 05:15:40;;;;;;;8.88;6.20;;;;;;;7.67;100.00;103272.31;4968509;28;20553;-84
2022/03/27 05:18:05;;;;;;;10.18;6.57;;;;;;;7.64;100.00;103274.94;4946830;28;20121;-83
2022/03/27 05:20:31;;;;;;;10.18;6.68;;;;;;;7.61;100.00;103280.16;4976430;28;20125;-84
2022/03/27 05:22:59;;;;;;;11.32;7.03;;;;;;;7.49;100.00;103273.06;4986038;28;20048;-84
2022/03/27 05:25:25;;;;;;;10.77;6.65;;;;;;;7.48;100.00;103288.03;4976318;28;20057;-84
2022/03/27 05:27:57;;;;;;;9.77;6.45;;;;;;;7.47;100.00;103275.69;4991446;28;20101;-84
2022/03/27 05:30:25;;;;;;;9.98;6.40;;;;;;;7.47;100.00;103277.47;5000628;28;20034;-84
2022/03/27 05:32:53;;;;;;;9.82;6.38;;;;;;;7.44;100.00;103270.38;4998393;28;20026;-84
2022/03/27 05:35:19;;;;;;;10.75;6.60;;;;;;;7.44;100.00;103280.06;4983646;28;20438;-84
2022/03/27 05:37:47;;;;;;;9.90;6.60;;;;;;;7.53;100.00;103277.47;4993012;28;20058;-85
2022/03/27 05:40:15;;;;;;;10.95;6.72;;;;;;;7.52;100.00;103281.88;4995450;28;20061;-87
2022/03/27 05:42:42;;;;;;;10.88;6.78;;;;;;;7.56;100.00;103282.78;4993213;28;20474;-83
2022/03/27 05:45:08;;;;;;;8.73;6.13;;;;;;;7.53;100.00;103285.41;5007748;28;20034;-84
2022/03/27 05:47:37;;;;;;;9.07;6.30;;;;;;;7.51;100.00;103282.75;5003347;28;20030;-83
2022/03/27 05:50:04;;;;;;;9.20;6.07;;;;;;;7.43;100.00;103271.28;4999501;28;20084;-83
2022/03/27 05:52:29;;;;;;;9.55;6.70;;;;;;;7.40;100.00;103273.00;5021841;28;20109;-84
2022/03/27 05:54:56;;;;;;;10.60;7.30;;;;;;;7.36;100.00;103272.09;5026718;28;20114;-87
2022/03/27 05:57:21;;;;;;;10.13;7.07;;;;;;;7.33;100.00;103274.72;5026363;28;20408;-84
2022/03/27 05:59:48;;;;;;;9.77;6.70;;;;;;;7.38;100.00;103273.00;4994243;28;20034;-83
2022/03/27 06:02:14;;;;;;;9.80;6.70;;;;;;;7.39;100.00;103274.75;4977218;28;20041;-83
2022/03/27 06:04:40;;;;;;;10.02;6.80;;;;;;;7.43;100.00;103275.66;4993109;28;20084;-83
2022/03/27 06:07:06;;;;;;;9.00;6.32;;;;;;;7.43;100.00;103279.19;5009715;28;20410;-84
2022/03/27 06:09:33;;;;;;;8.40;6.10;;;;;;;7.42;100.00;103276.50;5002435;28;20077;-82
2022/03/27 06:11:58;;;;;;;11.93;7.32;;;;;;;7.33;100.00;103288.78;5019563;28;20292;-85
2022/03/27 06:14:24;;;;;;;10.80;6.20;;;;;;;7.32;100.00;103294.91;4994419;28;20022;-83
2022/03/27 06:16:49;;;;;;;9.00;6.00;;;;;;;7.32;100.00;103302.81;5000253;28;20030;-82
2022/03/27 06:19:15;;;;;;;7.90;5.55;;;;;;;7.27;99.90;103301.03;4992235;28;20363;-83
2022/03/27 06:21:40;;;;;;;8.95;5.80;;;;;;;7.26;99.61;103296.63;4976147;28;20039;-83
2022/03/27 06:24:06;;;;;;;8.20;5.53;;;;;;;7.34;99.94;103297.53;4976970;28;20504;-83
2022/03/27 06:26:31;;;;;;;8.10;5.45;;;;;;;7.27;99.12;103296.63;4992951;28;20041;-84
2022/03/27 06:28:56;;;;;;;8.27;5.78;;;;;;;7.26;99.01;103289.56;5014132;28;20030;-86
2022/03/27 06:31:22;;;;;;;8.38;5.65;;;;;;;7.31;98.99;103295.75;4995198;28;20030;-83
2022/03/27 06:33:47;;;;;;;9.05;5.75;;;;;;;7.29;98.16;103291.34;5002016;28;20049;-84
2022/03/27 06:36:13;;;;;;;7.85;5.45;;;;;;;7.43;98.54;103300.28;4952955;28;20054;-88
2022/03/27 06:38:39;;;;;;;10.95;6.97;;;;;;;7.48;97.57;103290.66;4992036;28;20039;-80
2022/03/27 06:41:06;;;;;;;13.57;7.30;;;;;;;7.47;97.52;103299.44;4999822;28;20039;-82
2022/03/27 06:43:32;;;;;;;10.52;6.40;;;;;;;7.43;97.16;103300.28;5005433;28;20041;-81
2022/03/27 06:45:58;;;;;;;10.40;6.65;;;;;;;7.46;97.82;103302.94;4991530;28;20058;-83
2022/03/27 06:48:24;;;;;;;11.13;7.13;;;;;;;7.49;97.43;103307.34;5009822;28;20065;-82
2022/03/27 06:50:50;;;;;;;9.57;6.40;;;;;;;7.54;96.32;103306.53;4940971;28;20117;-82
2022/03/27 06:53:20;;;;;;;10.75;7.15;;;;;;;7.56;95.46;103306.53;5002982;28;20018;-83
2022/03/27 06:55:47;;;;;;;10.00;6.68;;;;;;;7.48;95.85;103306.47;4989001;28;20031;-82
2022/03/27 06:58:12;;;;;;;12.30;7.45;;;;;;;7.51;95.80;103308.25;4989059;28;20493;-82
2022/03/27 07:03:25;;;;;;;11.30;7.32;;;;;;;7.49;96.68;103296.78;4978898;28;20470;-82
2022/03/27 07:05:51;;;;;;;12.35;7.68;;;;;;;7.43;96.67;103299.38;4978152;28;20031;-82
2022/03/27 07:08:19;;;;;;;10.57;7.13;;;;;;;7.29;95.73;103299.25;5017226;28;20030;-83
2022/03/27 07:10:46;;;;;;;11.52;7.30;;;;;;;7.17;95.37;103302.69;4992367;28;20030;-82
2022/03/27 07:13:14;;;;;;;10.30;6.93;;;;;;;7.11;96.15;103303.53;5004279;28;20034;-85
2022/03/27 07:15:41;;;;;;;11.18;6.70;;;;;;;7.14;96.42;103306.16;5008329;28;20037;-86
2022/03/27 07:18:07;;;;;;;10.80;6.72;;;;;;;7.19;96.59;103300.97;4991997;28;20033;-85
2022/03/27 07:20:36;;;;;;;12.02;7.00;;;;;;;7.17;95.64;103305.31;4992373;28;20034;-84
2022/03/27 07:23:04;;;;;;;11.07;7.00;;;;;;;7.16;96.34;103300.91;4969811;28;20034;-85
2022/03/27 07:25:32;;;;;;;9.63;6.32;;;;;;;7.20;96.00;103300.97;5012716;28;20138;-85
2022/03/27 07:27:58;;;;;;;10.50;6.85;;;;;;;7.32;96.28;103302.81;4993825;28;20045;-84
2022/03/27 07:30:23;;;;;;;10.90;6.80;;;;;;;7.39;94.18;103293.19;5014246;28;20777;-83
2022/03/27 07:32:49;;;;;;;10.32;6.65;;;;;;;7.44;94.02;103296.75;5010681;28;20502;-83
2022/03/27 07:35:15;;;;;;;10.70;6.50;;;;;;;7.44;93.28;103298.50;4991731;28;20596;-84
2022/03/27 07:37:43;;;;;;;10.45;6.38;;;;;;;7.52;94.07;103292.44;4955242;28;20055;-84
2022/03/27 07:40:10;;;;;;;11.90;7.32;;;;;;;7.61;93.04;103290.72;4969406;28;20079;-83
2022/03/27 07:42:37;;;;;;;11.45;6.82;;;;;;;7.67;91.99;103296.94;4968209;28;20035;-84
2022/03/27 07:45:04;;;;;;;12.07;6.60;;;;;;;7.69;91.22;103297.81;4954739;28;20149;-83
2022/03/27 07:47:30;;;;;;;11.30;6.72;;;;;;;7.77;91.06;103291.72;4952029;29;20546;-83
2022/03/27 07:49:56;;;;;;;11.18;6.80;;;;;;;7.84;90.63;103297.03;4953599;28;20035;-84
2022/03/27 07:52:22;;;;;;;10.07;6.28;;;;;;;7.97;89.36;103286.56;4954657;28;20398;-83
2022/03/27 07:54:48;;;;;;;10.73;6.50;;;;;;;8.06;88.62;103297.16;4954932;28;20031;-84
2022/03/27 07:57:14;;;;;;;10.70;6.55;;;;;;;8.06;88.80;103296.25;4954911;29;20027;-84
2022/03/27 07:59:39;;;;;;;9.73;6.20;;;;;;;8.16;88.41;103295.47;4989954;28;20487;-84
2022/03/27 08:02:05;;;;;;;10.52;6.43;;;;;;;8.25;87.10;103299.88;4964369;28;20098;-83
2022/03/27 08:04:31;;;;;;;10.05;6.13;;;;;;;8.35;85.98;103297.31;4988014;28;20038;-84
2022/03/27 08:06:57;;;;;;;8.90;5.38;;;;;;;8.35;81.77;103299.03;4958621;29;20023;-84
2022/03/27 08:09:22;;;;;;;8.30;5.18;;;;;;;8.49;81.55;103299.13;4976273;28;20027;-83
2022/03/27 08:11:47;;;;;;;8.68;5.28;;;;;;;8.52;79.62;103300.03;4974908;28;20093;-85
2022/03/27 08:14:13;;;;;;;8.48;5.68;;;;;;;8.64;80.00;103309.75;4974313;28;20031;-83
2022/03/27 08:16:39;;;;;;;8.93;5.28;;;;;;;8.73;79.06;103310.66;4931993;29;20043;-83
2022/03/27 08:19:05;;;;;;;8.82;5.18;;;;;;;8.78;77.38;103304.50;4937388;29;20038;-83
2022/03/27 08:21:30;;;;;;;10.00;4.57;;;;;;;8.84;73.32;103295.72;4952785;28;20035;-83
2022/03/27 08:23:56;;;;;;;7.72;4.38;;;;;;;8.90;72.02;103295.75;4953242;28;20033;-82
2022/03/27 08:29:07;;;;;;;8.88;4.95;;;;;;;9.09;72.61;103299.28;4959378;29;20042;-82
2022/03/27 08:31:33;;;;;;;9.05;5.32;;;;;;;9.07;74.11;103305.47;4951907;29;20040;-84
2022/03/27 08:33:58;;;;;;;8.60;5.35;;;;;;;9.13;73.60;103302.78;4969529;28;20423;-83
2022/03/27 08:36:24;;;;;;;11.00;5.78;;;;;;;9.20;73.05;103295.78;4967645;28;20575;-82
2022/03/27 08:38:50;;;;;;;7.65;5.10;;;;;;;9.23;72.39;103306.34;5009646;28;20040;-85
2022/03/27 08:41:16;;;;;;;8.77;4.60;;;;;;;9.34;70.80;103302.81;4982784;28;20032;-86
2022/03/27 08:43:43;;;;;;;9.23;5.28;;;;;;;9.38;71.32;103297.53;4977478;28;20035;-85
2022/03/27 08:46:09;;;;;;;8.27;5.40;;;;;;;9.46;70.23;103306.31;4996258;28;20076;-84
2022/03/27 08:48:37;;;;;;;8.95;5.13;;;;;;;9.53;70.79;103302.81;4995773;28;20030;-85
2022/03/27 08:51:23;;;;;;;9.15;5.15;;;;;;;9.66;70.82;103293.09;4978861;28;20030;-86
2022/03/27 08:54:05;;;;;;;8.57;5.00;;;;;;;9.87;68.85;103301.88;4994854;28;20026;-86
2022/03/27 08:56:32;;;;;;;8.80;4.45;;;;;;;9.87;66.15;103286.84;4991271;28;20497;-87
2022/03/27 08:59:07;;;;;;;7.55;4.07;;;;;;;9.82;63.15;103297.47;4981804;28;20022;-86
2022/03/27 09:01:33;;;;;;;5.50;3.70;;;;;;;9.91;63.25;103285.09;5013142;28;20038;-85
2022/03/27 09:03:59;;;;;;;6.57;3.83;;;;;;;9.94;63.47;103293.03;4994299;28;20064;-83
2022/03/27 09:06:25;;;;;;;7.90;4.43;;;;;;;10.05;61.93;103288.59;4997124;28;20026;-85
2022/03/27 09:08:53;;;;;;;7.35;4.00;;;;;;;10.18;61.50;103292.09;4998397;28;20031;-85
2022/03/27 09:11:20;;;;;;;6.20;3.92;;;;;;;10.29;62.21;103289.38;4979730;28;20037;-86
2022/03/27 09:13:50;;;;;;;6.93;3.90;;;;;;;10.82;59.44;103290.88;4994807;28;20092;-85
2022/03/27 09:16:17;;;;;;;6.00;4.13;;;;;;;11.88;56.06;103277.59;4995793;28;20037;-85
2022/03/27 09:18:46;;;;;;;6.05;3.45;;;;;;;13.43;51.22;103278.94;4978243;28;20026;-85
2022/03/27 09:21:11;;;;;;;5.88;3.83;;;;;;;14.53;46.46;103278.56;4978097;28;20030;-85
2022/03/27 09:23:37;;;;;;;5.78;3.83;;;;;;;15.40;43.51;103280.03;4995464;28;20026;-85
2022/03/27 09:26:16;;;;;;;6.80;3.95;;;;;;;15.74;42.60;103276.44;4991035;28;20034;-85
2022/03/27 09:28:44;;;;;;;6.53;4.20;;;;;;;16.27;42.31;103278.53;4994270;28;20026;-86
2022/03/27 09:31:13;;;;;;;7.85;4.03;;;;;;;16.91;39.33;103282.81;4995661;28;20026;-85
2022/03/27 09:33:47;;;;;;;5.07;3.75;;;;;;;17.47;38.22;103279.13;4995163;28;20023;-85
2022/03/27 09:36:24;;;;;;;6.28;3.80;;;;;;;17.95;36.16;103279.25;4992975;28;20137;-85
2022/03/27 09:39:13;;;;;;;5.53;3.60;;;;;;;17.97;35.15;103278.25;4977332;28;20022;-85
2022/03/27 09:41:44;;;;;;;6.50;4.13;;;;;;;17.06;36.47;103283.22;4995274;28;20034;-86
2022/03/27 09:44:23;;;;;;;6.80;4.00;;;;;;;17.15;38.29;103281.13;4978305;28;20033;-86
2022/03/27 09:47:00;;;;;;;7.15;3.88;;;;;;;17.68;36.49;103282.84;4996336;28;20478;-85
2022/03/27 09:49:31;;;;;;;5.10;3.38;;;;;;;18.49;35.07;103279.88;5005250;28;20034;-85
2022/03/27 09:52:05;;;;;;;5.72;3.72;;;;;;;18.37;34.37;103285.72;4994504;28;20030;-85
2022/03/27 09:54:45;;;;;;;5.25;3.70;;;;;;;17.97;36.22;103280.09;4979053;28;20023;-85
2022/03/27 09:57:32;;;;;;;5.53;4.00;;;;;;;18.01;36.75;103284.38;4995442;28;20493;-86
2022/03/27 10:00:11;;;;;;;6.75;4.05;;;;;;;18.55;36.03;103278.75;5009653;28;20073;-86
2022/03/27 10:02:38;;;;;;;6.07;4.00;;;;;;;18.61;36.19;103278.53;4994172;28;20486;-85
2022/03/27 10:05:05;;;;;;;6.38;4.03;;;;;;;18.12;37.51;103268.78;4955880;28;20038;-85
2022/03/27 10:07:41;;;;;;;6.15;3.55;;;;;;;19.40;35.06;103268.09;4994759;28;20053;-85
2022/03/27 10:10:13;;;;;;;6.43;4.00;;;;;;;20.30;33.38;103272.97;4990664;28;20035;-85
2022/03/27 10:12:42;;;;;;;5.75;3.60;;;;;;;20.16;31.41;103272.78;4979336;28;20026;-86
2022/03/27 10:15:13;;;;;;;5.93;3.35;;;;;;;20.24;31.92;103267.91;4977454;28;20053;-86
2022/03/27 10:17:41;;;;;;;6.53;3.88;;;;;;;19.71;32.11;103255.09;4993637;28;20121;-86
2022/03/27 10:20:16;;;;;;;4.70;3.17;;;;;;;20.14;29.16;103253.13;4977997;28;20038;-86
2022/03/27 10:22:47;;;;;;;5.45;3.30;;;;;;;20.38;30.30;103256.47;4976440;28;20798;-86
2022/03/27 10:25:16;;;;;;;6.55;3.70;;;;;;;19.79;31.20;103256.47;4994657;28;20122;-87
2022/03/27 10:27:43;;;;;;;5.07;3.33;;;;;;;20.17;31.23;103258.38;4977644;28;20401;-87
2022/03/27 10:30:10;;;;;;;6.05;3.75;;;;;;;20.34;29.97;103254.88;4995120;28;20113;-87
2022/03/27 10:32:38;;;;;;;9.65;3.55;;;;;;;19.93;31.48;103253.19;4990546;28;20110;-86
2022/03/27 10:35:22;;;;;;;7.65;3.50;;;;;;;19.89;30.58;103248.91;4988214;28;20113;-87
2022/03/27 10:37:51;;;;;;;6.35;3.22;;;;;;;20.19;28.76;103248.41;4997969;28;20047;-87
2022/03/27 10:40:26;;;;;;;5.40;3.17;;;;;;;20.38;27.93;103248.41;4995816;28;20505;-87
2022/03/27 10:43:20;;;;;;;6.95;3.17;;;;;;;19.78;27.87;103244.00;5004820;28;20010;-86
2022/03/27 10:46:13;;;;;;;7.03;3.55;;;;;;;20.45;27.15;103241.78;4993299;28;20473;-86
2022/03/27 10:48:42;;;;;;;4.97;3.50;;;;;;;20.37;28.01;103233.22;4997171;28;20231;-86
2022/03/27 10:51:10;;;;;;;7.03;3.80;;;;;;;20.41;28.38;103237.50;4987206;28;20027;-86
2022/03/27 10:53:35;;;;;;;7.63;3.70;;;;;;;21.04;28.51;103246.97;4989429;28;20034;-86
2022/03/27 10:56:03;;;;;;;6.30;3.55;;;;;;;20.97;27.33;103237.47;4990754;28;20062;-86
2022/03/27 10:58:40;;;;;;;5.93;3.33;;;;;;;21.41;26.16;103233.41;4960669;28;20042;-86
2022/03/27 11:01:27;;;;;;;6.07;3.45;;;;;;;21.64;25.72;103229.53;4976859;28;20023;-86
2022/03/27 11:04:06;;;;;;;6.40;3.53;;;;;;;21.34;26.06;103232.00;4976148;28;20042;-86
2022/03/27 11:06:37;;;;;;;6.63;3.50;;;;;;;20.97;26.67;103229.38;4976289;28;20022;-85
2022/03/27 11:09:13;;;;;;;4.70;3.20;;;;;;;21.35;26.13;103231.03;4991778;28;20045;-86
2022/03/27 11:11:39;;;;;;;6.70;3.95;;;;;;;21.58;27.23;103227.16;4993497;28;20045;-86
2022/03/27 11:14:06;;;;;;;6.60;3.90;;;;;;;21.43;26.98;103224.31;5008938;28;20137;-86
2022/03/27 11:16:37;;;;;;;6.32;3.83;;;;;;;21.47;26.92;103225.00;5009136;28;20501;-86
2022/03/27 11:19:04;;;;;;;7.25;3.92;;;;;;;21.07;27.70;103224.41;4993889;28;20444;-86
2022/03/27 11:21:30;;;;;;;6.30;3.53;;;;;;;21.93;27.32;103214.44;5008857;28;20026;-86
2022/03/27 11:24:02;;;;;;;6.32;3.83;;;;;;;21.89;27.60;103212.88;4993693;28;20585;-86
2022/03/27 11:26:29;;;;;;;6.10;4.10;;;;;;;22.74;26.72;103213.44;4993525;28;20030;-86
2022/03/27 11:28:59;;;;;;;6.22;3.70;;;;;;;22.80;26.15;103206.81;5008712;28;20061;-86
2022/03/27 11:31:30;;;;;;;6.88;3.78;;;;;;;22.65;26.69;103203.19;5008924;28;20077;-86
2022/03/27 11:34:05;;;;;;;7.10;3.42;;;;;;;22.52;25.46;103210.25;4993478;28;20482;-86